sensor_id;sensor_type;location;lat;lon;timestamp;P1;durP1;ratioP1;P2;durP2;ratioP2
10542;SDS011;5320;50.046;10.314;2022-09-12T00:00:00;6.53;;;6.13;;
10542;SDS011;5320;50.046;10.314;2022-09-12T00:02:27;6.80;;;6.20;;
10542;SDS011;5320;50.046;10.314;2022-09-12T00:04:53;7.00;;;6.40;;
10542;SDS011;5320;50.046;10.314;2022-09-12T00:07:19;7.30;;;6.60;;
10542;SDS011;5320;50.046;10.314;2022-09-12T00:09:45;7.50;;;6.77;;
10542;SDS011;5320;50.046;10.314;2022-09-12T00:12:11;6.83;;;6.30;;
10542;SDS011;5320;50.046;10.314;2022-09-12T00:14:36;6.60;;;6.10;;
10542;SDS011;5320;50.046;10.314;2022-09-12T00:17:03;6.70;;;6.20;;
10542;SDS011;5320;50.046;10.314;2022-09-12T00:19:29;6.70;;;6.17;;
10542;SDS011;5320;50.046;10.314;2022-09-12T00:21:55;7.10;;;6.33;;
10542;SDS011;5320;50.046;10.314;2022-09-12T00:24:21;7.03;;;6.33;;
10542;SDS011;5320;50.046;10.314;2022-09-12T00:26:47;7.40;;;6.50;;
10542;SDS011;5320;50.046;10.314;2022-09-12T00:29:17;6.60;;;6.10;;
10542;SDS011;5320;50.046;10.314;2022-09-12T00:31:44;7.13;;;6.50;;
10542;SDS011;5320;50.046;10.314;2022-09-12T00:34:10;6.80;;;6.20;;
10542;SDS011;5320;50.046;10.314;2022-09-12T00:36:37;6.00;;;5.60;;
10542;SDS011;5320;50.046;10.314;2022-09-12T00:39:03;5.83;;;5.43;;
10542;SDS011;5320;50.046;10.314;2022-09-12T00:41:36;6.70;;;6.20;;
10542;SDS011;5320;50.046;10.314;2022-09-12T00:47:05;6.10;;;5.60;;
10542;SDS011;5320;50.046;10.314;2022-09-12T00:52:15;6.17;;;5.77;;
10542;SDS011;5320;50.046;10.314;2022-09-12T00:57:31;5.80;;;5.40;;
10542;SDS011;5320;50.046;10.314;2022-09-12T01:00:13;6.40;;;5.80;;
10542;SDS011;5320;50.046;10.314;2022-09-12T01:02:41;5.43;;;4.70;;
10542;SDS011;5320;50.046;10.314;2022-09-12T01:05:08;5.20;;;4.80;;
10542;SDS011;5320;50.046;10.314;2022-09-12T01:07:38;5.00;;;4.53;;
10542;SDS011;5320;50.046;10.314;2022-09-12T01:10:05;5.67;;;5.17;;
10542;SDS011;5320;50.046;10.314;2022-09-12T01:12:32;151.10;;;7.97;;
10542;SDS011;5320;50.046;10.314;2022-09-12T01:14:59;33.80;;;5.73;;
10542;SDS011;5320;50.046;10.314;2022-09-12T01:17:30;11.57;;;5.40;;
10542;SDS011;5320;50.046;10.314;2022-09-12T01:33:51;49.87;;;6.33;;
10542;SDS011;5320;50.046;10.314;2022-09-12T01:36:41;113.97;;;8.03;;
10542;SDS011;5320;50.046;10.314;2022-09-12T01:39:36;51.47;;;6.80;;
10542;SDS011;5320;50.046;10.314;2022-09-12T01:47:40;5.93;;;5.30;;
10542;SDS011;5320;50.046;10.314;2022-09-12T01:50:21;10.27;;;5.70;;
10542;SDS011;5320;50.046;10.314;2022-09-12T01:52:53;8.83;;;5.70;;
10542;SDS011;5320;50.046;10.314;2022-09-12T01:55:36;6.13;;;5.53;;
10542;SDS011;5320;50.046;10.314;2022-09-12T01:58:08;8.47;;;5.57;;
10542;SDS011;5320;50.046;10.314;2022-09-12T02:00:55;5.77;;;5.37;;
10542;SDS011;5320;50.046;10.314;2022-09-12T02:03:26;5.70;;;5.30;;
10542;SDS011;5320;50.046;10.314;2022-09-12T02:06:01;5.73;;;5.33;;
10542;SDS011;5320;50.046;10.314;2022-09-12T02:08:37;7.63;;;5.17;;
10542;SDS011;5320;50.046;10.314;2022-09-12T02:11:09;9.30;;;4.73;;
10542;SDS011;5320;50.046;10.314;2022-09-12T02:13:43;63.10;;;6.83;;
10542;SDS011;5320;50.046;10.314;2022-09-12T02:19:11;10.17;;;4.70;;
10542;SDS011;5320;50.046;10.314;2022-09-12T02:21:45;8.93;;;4.00;;
10542;SDS011;5320;50.046;10.314;2022-09-12T02:24:19;4.63;;;4.33;;
10542;SDS011;5320;50.046;10.314;2022-09-12T02:26:51;6.43;;;4.20;;
10542;SDS011;5320;50.046;10.314;2022-09-12T02:29:24;4.30;;;4.00;;
10542;SDS011;5320;50.046;10.314;2022-09-12T02:31:54;8.43;;;4.43;;
10542;SDS011;5320;50.046;10.314;2022-09-12T02:40:10;4.70;;;4.40;;
10542;SDS011;5320;50.046;10.314;2022-09-12T02:42:36;221.67;;;11.17;;
10542;SDS011;5320;50.046;10.314;2022-09-12T02:45:02;4.60;;;4.30;;
10542;SDS011;5320;50.046;10.314;2022-09-12T02:47:34;4.90;;;4.60;;
10542;SDS011;5320;50.046;10.314;2022-09-12T02:50:04;131.13;;;8.63;;
10542;SDS011;5320;50.046;10.314;2022-09-12T02:52:32;4.77;;;4.47;;
10542;SDS011;5320;50.046;10.314;2022-09-12T02:54:59;5.83;;;5.33;;
10542;SDS011;5320;50.046;10.314;2022-09-12T02:57:26;4.70;;;4.37;;
10542;SDS011;5320;50.046;10.314;2022-09-12T02:59:53;30.93;;;5.70;;
10542;SDS011;5320;50.046;10.314;2022-09-12T03:02:42;5.43;;;5.13;;
10542;SDS011;5320;50.046;10.314;2022-09-12T03:05:31;5.60;;;5.20;;
10542;SDS011;5320;50.046;10.314;2022-09-12T03:08:25;71.10;;;7.10;;
10542;SDS011;5320;50.046;10.314;2022-09-12T03:11:31;8.93;;;5.50;;
10542;SDS011;5320;50.046;10.314;2022-09-12T03:17:06;5.37;;;5.03;;
10542;SDS011;5320;50.046;10.314;2022-09-12T03:22:32;5.30;;;4.97;;
10542;SDS011;5320;50.046;10.314;2022-09-12T03:25:40;87.37;;;7.13;;
10542;SDS011;5320;50.046;10.314;2022-09-12T03:28:15;8.67;;;5.33;;
10542;SDS011;5320;50.046;10.314;2022-09-12T03:30:44;13.63;;;5.50;;
10542;SDS011;5320;50.046;10.314;2022-09-12T03:33:12;5.70;;;5.30;;
10542;SDS011;5320;50.046;10.314;2022-09-12T03:35:39;5.73;;;5.00;;
10542;SDS011;5320;50.046;10.314;2022-09-12T03:38:06;48.50;;;5.97;;
10542;SDS011;5320;50.046;10.314;2022-09-12T03:40:33;27.63;;;5.93;;
10542;SDS011;5320;50.046;10.314;2022-09-12T03:42:59;6.27;;;4.83;;
10542;SDS011;5320;50.046;10.314;2022-09-12T03:45:24;5.43;;;5.07;;
10542;SDS011;5320;50.046;10.314;2022-09-12T03:47:50;5.17;;;4.77;;
10542;SDS011;5320;50.046;10.314;2022-09-12T03:50:16;21.07;;;5.60;;
10542;SDS011;5320;50.046;10.314;2022-09-12T03:52:42;30.47;;;5.93;;
10542;SDS011;5320;50.046;10.314;2022-09-12T03:55:08;5.47;;;4.97;;
10542;SDS011;5320;50.046;10.314;2022-09-12T03:57:34;20.23;;;5.00;;
10542;SDS011;5320;50.046;10.314;2022-09-12T04:00:00;40.43;;;6.20;;
10542;SDS011;5320;50.046;10.314;2022-09-12T04:02:26;32.87;;;5.70;;
10542;SDS011;5320;50.046;10.314;2022-09-12T04:04:53;121.53;;;7.13;;
10542;SDS011;5320;50.046;10.314;2022-09-12T04:07:19;5.87;;;5.47;;
10542;SDS011;5320;50.046;10.314;2022-09-12T04:09:45;92.50;;;8.50;;
10542;SDS011;5320;50.046;10.314;2022-09-12T04:12:11;174.67;;;9.93;;
10542;SDS011;5320;50.046;10.314;2022-09-12T04:14:38;120.77;;;9.70;;
10542;SDS011;5320;50.046;10.314;2022-09-12T04:17:04;169.87;;;10.13;;
10542;SDS011;5320;50.046;10.314;2022-09-12T04:19:30;46.00;;;6.90;;
10542;SDS011;5320;50.046;10.314;2022-09-12T04:21:56;106.73;;;9.10;;
10542;SDS011;5320;50.046;10.314;2022-09-12T04:24:22;12.03;;;5.93;;
10542;SDS011;5320;50.046;10.314;2022-09-12T04:26:47;53.57;;;7.53;;
10542;SDS011;5320;50.046;10.314;2022-09-12T04:29:13;43.50;;;7.13;;
10542;SDS011;5320;50.046;10.314;2022-09-12T04:31:39;7.60;;;5.80;;
10542;SDS011;5320;50.046;10.314;2022-09-12T04:34:05;9.73;;;5.60;;
10542;SDS011;5320;50.046;10.314;2022-09-12T04:36:32;9.43;;;5.90;;
10542;SDS011;5320;50.046;10.314;2022-09-12T04:38:59;10.30;;;5.77;;
10542;SDS011;5320;50.046;10.314;2022-09-12T04:41:27;6.07;;;5.60;;
10542;SDS011;5320;50.046;10.314;2022-09-12T04:43:56;5.57;;;5.07;;
10542;SDS011;5320;50.046;10.314;2022-09-12T04:46:25;4.73;;;4.43;;
10542;SDS011;5320;50.046;10.314;2022-09-12T04:48:54;4.50;;;4.20;;
10542;SDS011;5320;50.046;10.314;2022-09-12T04:51:22;5.27;;;4.70;;
10542;SDS011;5320;50.046;10.314;2022-09-12T04:53:54;5.57;;;5.17;;
10542;SDS011;5320;50.046;10.314;2022-09-12T04:56:30;5.53;;;5.03;;
10542;SDS011;5320;50.046;10.314;2022-09-12T04:58:56;10.93;;;6.40;;
10542;SDS011;5320;50.046;10.314;2022-09-12T05:01:23;53.23;;;8.63;;
10542;SDS011;5320;50.046;10.314;2022-09-12T05:03:50;63.90;;;9.23;;
10542;SDS011;5320;50.046;10.314;2022-09-12T05:06:17;7.20;;;6.60;;
10542;SDS011;5320;50.046;10.314;2022-09-12T05:08:46;7.00;;;6.40;;
10542;SDS011;5320;50.046;10.314;2022-09-12T05:11:16;8.40;;;7.70;;
10542;SDS011;5320;50.046;10.314;2022-09-12T05:13:43;202.43;;;12.30;;
10542;SDS011;5320;50.046;10.314;2022-09-12T05:16:10;136.20;;;10.47;;
10542;SDS011;5320;50.046;10.314;2022-09-12T05:18:39;8.40;;;7.70;;
10542;SDS011;5320;50.046;10.314;2022-09-12T05:21:05;626.23;;;23.47;;
10542;SDS011;5320;50.046;10.314;2022-09-12T05:23:33;617.93;;;23.63;;
10542;SDS011;5320;50.046;10.314;2022-09-12T05:26:00;969.30;;;34.67;;
10542;SDS011;5320;50.046;10.314;2022-09-12T05:28:29;349.07;;;18.60;;
10542;SDS011;5320;50.046;10.314;2022-09-12T05:31:12;335.70;;;16.83;;
10542;SDS011;5320;50.046;10.314;2022-09-12T05:33:50;467.23;;;20.70;;
10542;SDS011;5320;50.046;10.314;2022-09-12T05:36:17;70.57;;;10.77;;
10542;SDS011;5320;50.046;10.314;2022-09-12T05:38:48;349.27;;;17.73;;
10542;SDS011;5320;50.046;10.314;2022-09-12T05:41:15;47.57;;;10.40;;
10542;SDS011;5320;50.046;10.314;2022-09-12T05:43:44;151.43;;;14.20;;
10542;SDS011;5320;50.046;10.314;2022-09-12T05:46:10;196.73;;;15.53;;
10542;SDS011;5320;50.046;10.314;2022-09-12T05:48:40;262.83;;;16.97;;
10542;SDS011;5320;50.046;10.314;2022-09-12T05:51:12;32.27;;;11.00;;
10542;SDS011;5320;50.046;10.314;2022-09-12T05:53:44;17.10;;;10.63;;
10542;SDS011;5320;50.046;10.314;2022-09-12T05:56:12;12.73;;;11.17;;
10542;SDS011;5320;50.046;10.314;2022-09-12T05:58:40;16.77;;;11.40;;
10542;SDS011;5320;50.046;10.314;2022-09-12T06:01:09;13.13;;;10.87;;
10542;SDS011;5320;50.046;10.314;2022-09-12T06:03:41;12.30;;;11.00;;
10542;SDS011;5320;50.046;10.314;2022-09-12T06:06:08;12.77;;;11.07;;
10542;SDS011;5320;50.046;10.314;2022-09-12T06:08:38;11.93;;;10.73;;
10542;SDS011;5320;50.046;10.314;2022-09-12T06:11:05;34.93;;;11.37;;
10542;SDS011;5320;50.046;10.314;2022-09-12T06:13:33;12.20;;;10.50;;
10542;SDS011;5320;50.046;10.314;2022-09-12T06:16:02;11.33;;;10.23;;
10542;SDS011;5320;50.046;10.314;2022-09-12T06:18:29;11.57;;;10.47;;
10542;SDS011;5320;50.046;10.314;2022-09-12T06:20:55;10.70;;;9.60;;
10542;SDS011;5320;50.046;10.314;2022-09-12T06:23:21;13.00;;;9.50;;
10542;SDS011;5320;50.046;10.314;2022-09-12T06:25:47;9.70;;;8.77;;
10542;SDS011;5320;50.046;10.314;2022-09-12T06:28:14;9.37;;;8.37;;
10542;SDS011;5320;50.046;10.314;2022-09-12T06:30:40;9.00;;;8.10;;
10542;SDS011;5320;50.046;10.314;2022-09-12T06:33:06;8.67;;;7.87;;
10542;SDS011;5320;50.046;10.314;2022-09-12T06:35:34;11.23;;;8.43;;
10542;SDS011;5320;50.046;10.314;2022-09-12T06:38:01;16.13;;;8.03;;
10542;SDS011;5320;50.046;10.314;2022-09-12T06:40:27;9.33;;;8.43;;
10542;SDS011;5320;50.046;10.314;2022-09-12T06:42:53;10.00;;;9.10;;
10542;SDS011;5320;50.046;10.314;2022-09-12T06:45:19;9.80;;;8.77;;
10542;SDS011;5320;50.046;10.314;2022-09-12T06:47:45;10.77;;;9.70;;
10542;SDS011;5320;50.046;10.314;2022-09-12T06:50:11;11.47;;;9.10;;
10542;SDS011;5320;50.046;10.314;2022-09-12T06:52:36;13.43;;;8.57;;
10542;SDS011;5320;50.046;10.314;2022-09-12T06:55:02;10.20;;;7.67;;
10542;SDS011;5320;50.046;10.314;2022-09-12T06:57:29;8.43;;;7.73;;
10542;SDS011;5320;50.046;10.314;2022-09-12T06:59:56;11.83;;;8.13;;
10542;SDS011;5320;50.046;10.314;2022-09-12T07:02:24;7.80;;;7.10;;
10542;SDS011;5320;50.046;10.314;2022-09-12T07:04:51;8.23;;;7.53;;
10542;SDS011;5320;50.046;10.314;2022-09-12T07:07:16;8.63;;;7.87;;
10542;SDS011;5320;50.046;10.314;2022-09-12T07:09:42;9.13;;;7.70;;
10542;SDS011;5320;50.046;10.314;2022-09-12T07:12:08;20.80;;;8.30;;
10542;SDS011;5320;50.046;10.314;2022-09-12T07:14:34;7.93;;;7.23;;
10542;SDS011;5320;50.046;10.314;2022-09-12T07:17:00;18.60;;;8.03;;
10542;SDS011;5320;50.046;10.314;2022-09-12T07:19:25;8.43;;;7.70;;
10542;SDS011;5320;50.046;10.314;2022-09-12T07:21:51;8.67;;;7.87;;
10542;SDS011;5320;50.046;10.314;2022-09-12T07:24:17;8.90;;;7.97;;
10542;SDS011;5320;50.046;10.314;2022-09-12T07:26:43;8.57;;;7.73;;
10542;SDS011;5320;50.046;10.314;2022-09-12T07:29:13;8.50;;;7.70;;
10542;SDS011;5320;50.046;10.314;2022-09-12T07:31:42;9.67;;;8.77;;
10542;SDS011;5320;50.046;10.314;2022-09-12T07:34:08;12.10;;;8.60;;
10542;SDS011;5320;50.046;10.314;2022-09-12T07:36:35;10.63;;;8.87;;
10542;SDS011;5320;50.046;10.314;2022-09-12T07:39:01;12.20;;;8.57;;
10542;SDS011;5320;50.046;10.314;2022-09-12T07:41:28;10.43;;;8.70;;
10542;SDS011;5320;50.046;10.314;2022-09-12T07:43:56;10.17;;;9.17;;
10542;SDS011;5320;50.046;10.314;2022-09-12T07:46:23;12.90;;;9.83;;
10542;SDS011;5320;50.046;10.314;2022-09-12T07:48:59;11.33;;;10.23;;
10542;SDS011;5320;50.046;10.314;2022-09-12T07:51:27;11.00;;;9.90;;
10542;SDS011;5320;50.046;10.314;2022-09-12T07:53:54;11.27;;;9.90;;
10542;SDS011;5320;50.046;10.314;2022-09-12T07:56:20;11.63;;;9.53;;
10542;SDS011;5320;50.046;10.314;2022-09-12T07:58:47;10.93;;;9.50;;
10542;SDS011;5320;50.046;10.314;2022-09-12T08:01:19;10.67;;;9.67;;
10542;SDS011;5320;50.046;10.314;2022-09-12T08:03:48;10.73;;;9.50;;
10542;SDS011;5320;50.046;10.314;2022-09-12T08:06:15;12.00;;;10.03;;
10542;SDS011;5320;50.046;10.314;2022-09-12T08:08:45;13.73;;;9.97;;
10542;SDS011;5320;50.046;10.314;2022-09-12T08:11:12;21.03;;;10.23;;
10542;SDS011;5320;50.046;10.314;2022-09-12T08:13:40;59.27;;;11.47;;
10542;SDS011;5320;50.046;10.314;2022-09-12T08:16:08;12.37;;;10.10;;
10542;SDS011;5320;50.046;10.314;2022-09-12T08:18:39;27.43;;;9.73;;
10542;SDS011;5320;50.046;10.314;2022-09-12T08:21:09;21.07;;;11.10;;
10542;SDS011;5320;50.046;10.314;2022-09-12T08:23:38;11.97;;;10.67;;
10542;SDS011;5320;50.046;10.314;2022-09-12T08:26:08;31.67;;;11.23;;
10542;SDS011;5320;50.046;10.314;2022-09-12T08:28:34;11.80;;;10.60;;
10542;SDS011;5320;50.046;10.314;2022-09-12T08:31:08;45.47;;;11.47;;
10542;SDS011;5320;50.046;10.314;2022-09-12T08:33:37;11.23;;;10.23;;
10542;SDS011;5320;50.046;10.314;2022-09-12T08:36:04;12.00;;;10.80;;
10542;SDS011;5320;50.046;10.314;2022-09-12T08:38:39;16.00;;;11.10;;
10542;SDS011;5320;50.046;10.314;2022-09-12T08:43:52;12.70;;;11.37;;
10542;SDS011;5320;50.046;10.314;2022-09-12T08:46:59;12.80;;;11.60;;
10542;SDS011;5320;50.046;10.314;2022-09-12T08:49:53;12.87;;;11.67;;
10542;SDS011;5320;50.046;10.314;2022-09-12T08:52:50;13.43;;;12.23;;
10542;SDS011;5320;50.046;10.314;2022-09-12T08:55:28;14.63;;;12.60;;
10542;SDS011;5320;50.046;10.314;2022-09-12T08:58:29;13.63;;;12.27;;
10542;SDS011;5320;50.046;10.314;2022-09-12T09:22:43;14.07;;;12.77;;
10542;SDS011;5320;50.046;10.314;2022-09-12T09:25:21;14.33;;;13.03;;
10542;SDS011;5320;50.046;10.314;2022-09-12T09:27:55;13.13;;;12.03;;
10542;SDS011;5320;50.046;10.314;2022-09-12T09:30:25;13.80;;;12.60;;
10542;SDS011;5320;50.046;10.314;2022-09-12T09:32:54;12.93;;;11.73;;
10542;SDS011;5320;50.046;10.314;2022-09-12T09:40:53;14.20;;;12.95;;
10542;SDS011;5320;50.046;10.314;2022-09-12T09:43:36;14.73;;;13.30;;
10542;SDS011;5320;50.046;10.314;2022-09-12T09:46:03;14.38;;;13.07;;
10542;SDS011;5320;50.046;10.314;2022-09-12T09:48:36;13.23;;;12.10;;
10542;SDS011;5320;50.046;10.314;2022-09-12T09:51:06;14.45;;;13.25;;
10542;SDS011;5320;50.046;10.314;2022-09-12T09:56:26;13.80;;;12.60;;
10542;SDS011;5320;50.046;10.314;2022-09-12T09:59:11;15.40;;;14.00;;
10542;SDS011;5320;50.046;10.314;2022-09-12T10:01:56;14.55;;;13.35;;
10542;SDS011;5320;50.046;10.314;2022-09-12T10:04:53;14.10;;;12.82;;
10542;SDS011;5320;50.046;10.314;2022-09-12T10:07:23;14.57;;;13.10;;
10542;SDS011;5320;50.046;10.314;2022-09-12T10:12:42;14.30;;;12.73;;
10542;SDS011;5320;50.046;10.314;2022-09-12T10:15:41;12.18;;;11.07;;
10542;SDS011;5320;50.046;10.314;2022-09-12T10:18:00;10.30;;;9.50;;
10542;SDS011;5320;50.046;10.314;2022-09-12T10:25:58;8.48;;;7.85;;
10542;SDS011;5320;50.046;10.314;2022-09-12T10:28:31;8.85;;;8.18;;
10542;SDS011;5320;50.046;10.314;2022-09-12T10:30:59;9.35;;;8.65;;
10542;SDS011;5320;50.046;10.314;2022-09-12T10:33:26;8.88;;;8.18;;
10542;SDS011;5320;50.046;10.314;2022-09-12T10:35:53;8.60;;;7.70;;
10542;SDS011;5320;50.046;10.314;2022-09-12T10:38:21;8.45;;;7.85;;
10542;SDS011;5320;50.046;10.314;2022-09-12T10:40:58;8.93;;;8.23;;
10542;SDS011;5320;50.046;10.314;2022-09-12T10:45:58;7.47;;;6.97;;
10542;SDS011;5320;50.046;10.314;2022-09-12T10:48:43;7.32;;;6.72;;
10542;SDS011;5320;50.046;10.314;2022-09-12T10:53:48;6.78;;;6.28;;
10542;SDS011;5320;50.046;10.314;2022-09-12T10:56:21;7.13;;;6.53;;
10542;SDS011;5320;50.046;10.314;2022-09-12T11:01:40;6.72;;;5.88;;
10542;SDS011;5320;50.046;10.314;2022-09-12T11:09:20;6.00;;;5.50;;
10542;SDS011;5320;50.046;10.314;2022-09-12T11:12:02;5.85;;;5.45;;
10542;SDS011;5320;50.046;10.314;2022-09-12T11:20:41;5.32;;;4.93;;
10542;SDS011;5320;50.046;10.314;2022-09-12T11:23:53;5.63;;;5.13;;
10542;SDS011;5320;50.046;10.314;2022-09-12T11:37:44;4.35;;;4.13;;
10542;SDS011;5320;50.046;10.314;2022-09-12T11:42:47;4.63;;;4.32;;
10542;SDS011;5320;50.046;10.314;2022-09-12T11:45:19;4.20;;;3.90;;
10542;SDS011;5320;50.046;10.314;2022-09-12T11:47:52;4.30;;;4.10;;
10542;SDS011;5320;50.046;10.314;2022-09-12T11:50:21;4.13;;;3.90;;
10542;SDS011;5320;50.046;10.314;2022-09-12T11:52:51;4.35;;;4.00;;
10542;SDS011;5320;50.046;10.314;2022-09-12T11:55:21;3.95;;;3.65;;
10542;SDS011;5320;50.046;10.314;2022-09-12T11:57:52;4.03;;;3.83;;
10542;SDS011;5320;50.046;10.314;2022-09-12T12:00:23;3.80;;;3.58;;
10542;SDS011;5320;50.046;10.314;2022-09-12T12:03:03;3.53;;;3.33;;
10542;SDS011;5320;50.046;10.314;2022-09-12T12:05:50;3.55;;;3.35;;
10542;SDS011;5320;50.046;10.314;2022-09-12T12:08:20;3.75;;;3.45;;
10542;SDS011;5320;50.046;10.314;2022-09-12T12:10:49;3.80;;;3.50;;
10542;SDS011;5320;50.046;10.314;2022-09-12T12:13:36;3.55;;;3.35;;
10542;SDS011;5320;50.046;10.314;2022-09-12T12:16:22;3.65;;;3.45;;
10542;SDS011;5320;50.046;10.314;2022-09-12T12:18:56;3.33;;;3.13;;
10542;SDS011;5320;50.046;10.314;2022-09-12T12:29:03;4.60;;;4.30;;
10542;SDS011;5320;50.046;10.314;2022-09-12T12:31:40;4.32;;;4.10;;
10542;SDS011;5320;50.046;10.314;2022-09-12T12:39:58;4.50;;;4.20;;
10542;SDS011;5320;50.046;10.314;2022-09-12T12:47:31;4.88;;;4.57;;
10542;SDS011;5320;50.046;10.314;2022-09-12T12:52:44;5.15;;;4.65;;
10542;SDS011;5320;50.046;10.314;2022-09-12T12:55:14;5.20;;;4.80;;
10542;SDS011;5320;50.046;10.314;2022-09-12T12:57:50;4.53;;;4.13;;
10542;SDS011;5320;50.046;10.314;2022-09-12T13:00:24;5.32;;;4.93;;
10542;SDS011;5320;50.046;10.314;2022-09-12T13:05:29;6.13;;;5.63;;
10542;SDS011;5320;50.046;10.314;2022-09-12T13:08:07;5.03;;;4.72;;
10542;SDS011;5320;50.046;10.314;2022-09-12T13:10:35;5.85;;;5.10;;
10542;SDS011;5320;50.046;10.314;2022-09-12T13:13:03;6.20;;;4.55;;
10542;SDS011;5320;50.046;10.314;2022-09-12T13:18:05;5.22;;;4.80;;
10542;SDS011;5320;50.046;10.314;2022-09-12T13:20:37;5.32;;;4.95;;
10542;SDS011;5320;50.046;10.314;2022-09-12T13:23:23;6.03;;;5.53;;
10542;SDS011;5320;50.046;10.314;2022-09-12T13:25:55;5.35;;;4.85;;
10542;SDS011;5320;50.046;10.314;2022-09-12T13:28:22;5.20;;;4.80;;
10542;SDS011;5320;50.046;10.314;2022-09-12T13:33:30;5.45;;;5.05;;
10542;SDS011;5320;50.046;10.314;2022-09-12T13:39:07;4.85;;;4.55;;
10542;SDS011;5320;50.046;10.314;2022-09-12T13:44:27;5.70;;;5.30;;
10542;SDS011;5320;50.046;10.314;2022-09-12T13:46:54;6.05;;;5.63;;
10542;SDS011;5320;50.046;10.314;2022-09-12T13:49:31;5.05;;;4.72;;
10542;SDS011;5320;50.046;10.314;2022-09-12T13:54:30;5.20;;;4.90;;
10542;SDS011;5320;50.046;10.314;2022-09-12T13:56:58;5.40;;;5.00;;
10542;SDS011;5320;50.046;10.314;2022-09-12T13:59:24;5.82;;;5.32;;
10542;SDS011;5320;50.046;10.314;2022-09-12T14:01:50;6.20;;;5.70;;
10542;SDS011;5320;50.046;10.314;2022-09-12T14:04:18;5.10;;;4.80;;
10542;SDS011;5320;50.046;10.314;2022-09-12T14:07:17;5.05;;;4.70;;
10542;SDS011;5320;50.046;10.314;2022-09-12T14:09:47;5.22;;;4.82;;
10542;SDS011;5320;50.046;10.314;2022-09-12T14:14:49;5.00;;;4.70;;
10542;SDS011;5320;50.046;10.314;2022-09-12T14:17:27;5.30;;;4.90;;
10542;SDS011;5320;50.046;10.314;2022-09-12T14:20:06;5.20;;;4.80;;
10542;SDS011;5320;50.046;10.314;2022-09-12T14:22:37;5.45;;;5.00;;
10542;SDS011;5320;50.046;10.314;2022-09-12T14:25:05;5.05;;;4.68;;
10542;SDS011;5320;50.046;10.314;2022-09-12T14:27:40;5.15;;;4.80;;
10542;SDS011;5320;50.046;10.314;2022-09-12T14:33:15;5.38;;;5.07;;
10542;SDS011;5320;50.046;10.314;2022-09-12T14:36:29;4.90;;;4.60;;
10542;SDS011;5320;50.046;10.314;2022-09-12T14:38:43;4.78;;;4.47;;
10542;SDS011;5320;50.046;10.314;2022-09-12T14:41:13;5.10;;;4.80;;
10542;SDS011;5320;50.046;10.314;2022-09-12T14:43:51;5.70;;;4.90;;
10542;SDS011;5320;50.046;10.314;2022-09-12T14:46:25;4.78;;;4.47;;
10542;SDS011;5320;50.046;10.314;2022-09-12T14:51:36;6.47;;;5.03;;
10542;SDS011;5320;50.046;10.314;2022-09-12T14:54:04;5.78;;;5.32;;
10542;SDS011;5320;50.046;10.314;2022-09-12T14:56:38;5.50;;;5.00;;
10542;SDS011;5320;50.046;10.314;2022-09-12T15:05:25;5.38;;;5.00;;
10542;SDS011;5320;50.046;10.314;2022-09-12T15:07:33;5.18;;;4.78;;
10542;SDS011;5320;50.046;10.314;2022-09-12T15:10:16;5.65;;;5.00;;
10542;SDS011;5320;50.046;10.314;2022-09-12T15:12:49;5.30;;;4.90;;
10542;SDS011;5320;50.046;10.314;2022-09-12T15:15:34;4.38;;;4.07;;
10542;SDS011;5320;50.046;10.314;2022-09-12T15:18:00;5.60;;;5.10;;
10542;SDS011;5320;50.046;10.314;2022-09-12T15:20:26;5.30;;;4.90;;
10542;SDS011;5320;50.046;10.314;2022-09-12T15:22:52;5.10;;;4.70;;
10542;SDS011;5320;50.046;10.314;2022-09-12T15:25:18;5.40;;;5.00;;
10542;SDS011;5320;50.046;10.314;2022-09-12T15:27:44;5.85;;;4.72;;
10542;SDS011;5320;50.046;10.314;2022-09-12T15:30:11;4.90;;;4.60;;
10542;SDS011;5320;50.046;10.314;2022-09-12T15:32:41;5.43;;;4.93;;
10542;SDS011;5320;50.046;10.314;2022-09-12T15:35:18;5.10;;;4.68;;
10542;SDS011;5320;50.046;10.314;2022-09-12T15:37:50;5.15;;;4.70;;
10542;SDS011;5320;50.046;10.314;2022-09-12T15:40:15;5.25;;;4.88;;
10542;SDS011;5320;50.046;10.314;2022-09-12T15:42:42;5.28;;;4.88;;
10542;SDS011;5320;50.046;10.314;2022-09-12T15:45:15;5.40;;;5.00;;
10542;SDS011;5320;50.046;10.314;2022-09-12T15:47:44;5.25;;;4.85;;
10542;SDS011;5320;50.046;10.314;2022-09-12T15:50:10;5.00;;;4.60;;
10542;SDS011;5320;50.046;10.314;2022-09-12T15:52:36;4.85;;;4.55;;
10542;SDS011;5320;50.046;10.314;2022-09-12T15:55:02;5.30;;;4.80;;
10542;SDS011;5320;50.046;10.314;2022-09-12T15:57:29;5.10;;;4.63;;
10542;SDS011;5320;50.046;10.314;2022-09-12T15:59:55;4.97;;;4.55;;
10542;SDS011;5320;50.046;10.314;2022-09-12T16:02:21;4.50;;;4.30;;
10542;SDS011;5320;50.046;10.314;2022-09-12T16:04:47;4.97;;;4.57;;
10542;SDS011;5320;50.046;10.314;2022-09-12T16:07:13;4.40;;;4.10;;
10542;SDS011;5320;50.046;10.314;2022-09-12T16:09:39;5.30;;;4.80;;
10542;SDS011;5320;50.046;10.314;2022-09-12T16:12:05;4.82;;;4.53;;
10542;SDS011;5320;50.046;10.314;2022-09-12T16:14:31;4.55;;;4.25;;
10542;SDS011;5320;50.046;10.314;2022-09-12T16:16:57;4.05;;;3.80;;
10542;SDS011;5320;50.046;10.314;2022-09-12T16:19:22;4.60;;;4.20;;
10542;SDS011;5320;50.046;10.314;2022-09-12T16:21:48;4.80;;;4.50;;
10542;SDS011;5320;50.046;10.314;2022-09-12T16:24:14;4.35;;;4.05;;
10542;SDS011;5320;50.046;10.314;2022-09-12T16:26:40;4.43;;;4.13;;
10542;SDS011;5320;50.046;10.314;2022-09-12T16:29:06;4.63;;;4.32;;
10542;SDS011;5320;50.046;10.314;2022-09-12T16:31:33;4.38;;;3.97;;
10542;SDS011;5320;50.046;10.314;2022-09-12T16:33:59;4.40;;;4.10;;
10542;SDS011;5320;50.046;10.314;2022-09-12T16:36:25;4.35;;;4.13;;
10542;SDS011;5320;50.046;10.314;2022-09-12T16:38:52;4.57;;;4.28;;
10542;SDS011;5320;50.046;10.314;2022-09-12T16:41:19;4.45;;;4.15;;
10542;SDS011;5320;50.046;10.314;2022-09-12T16:43:46;4.65;;;4.25;;
10542;SDS011;5320;50.046;10.314;2022-09-12T16:46:13;4.53;;;4.13;;
10542;SDS011;5320;50.046;10.314;2022-09-12T16:48:53;4.50;;;4.20;;
10542;SDS011;5320;50.046;10.314;2022-09-12T16:51:22;4.35;;;4.10;;
10542;SDS011;5320;50.046;10.314;2022-09-12T16:53:50;4.15;;;3.95;;
10542;SDS011;5320;50.046;10.314;2022-09-12T16:56:15;4.30;;;4.00;;
10542;SDS011;5320;50.046;10.314;2022-09-12T16:58:41;4.05;;;3.83;;
10542;SDS011;5320;50.046;10.314;2022-09-12T17:01:12;4.15;;;3.90;;
10542;SDS011;5320;50.046;10.314;2022-09-12T17:03:38;4.07;;;3.78;;
10542;SDS011;5320;50.046;10.314;2022-09-12T17:06:05;5.13;;;3.97;;
10542;SDS011;5320;50.046;10.314;2022-09-12T17:08:37;4.00;;;3.80;;
10542;SDS011;5320;50.046;10.314;2022-09-12T17:11:06;4.13;;;3.72;;
10542;SDS011;5320;50.046;10.314;2022-09-12T17:13:34;4.30;;;3.90;;
10542;SDS011;5320;50.046;10.314;2022-09-12T17:16:03;4.07;;;3.78;;
10542;SDS011;5320;50.046;10.314;2022-09-12T17:18:34;4.05;;;3.63;;
10542;SDS011;5320;50.046;10.314;2022-09-12T17:21:00;4.57;;;4.10;;
10542;SDS011;5320;50.046;10.314;2022-09-12T17:23:26;4.40;;;4.10;;
10542;SDS011;5320;50.046;10.314;2022-09-12T17:25:52;4.18;;;3.80;;
10542;SDS011;5320;50.046;10.314;2022-09-12T17:28:18;5.20;;;4.80;;
10542;SDS011;5320;50.046;10.314;2022-09-12T17:30:44;4.60;;;4.30;;
10542;SDS011;5320;50.046;10.314;2022-09-12T17:33:10;4.40;;;4.00;;
10542;SDS011;5320;50.046;10.314;2022-09-12T17:35:37;4.40;;;4.10;;
10542;SDS011;5320;50.046;10.314;2022-09-12T17:38:03;4.55;;;4.25;;
10542;SDS011;5320;50.046;10.314;2022-09-12T17:40:30;4.72;;;4.43;;
10542;SDS011;5320;50.046;10.314;2022-09-12T17:42:58;4.57;;;4.28;;
10542;SDS011;5320;50.046;10.314;2022-09-12T17:45:29;4.75;;;4.35;;
10542;SDS011;5320;50.046;10.314;2022-09-12T17:47:54;4.68;;;4.38;;